sensor_id;sensor_type;location;lat;lon;timestamp;temperature;humidity
3818;DHT22;1924;48.078;11.516;2022-07-23T00:01:13;24.00;91.20
3818;DHT22;1924;48.078;11.516;2022-07-23T00:03:40;23.90;90.70
3818;DHT22;1924;48.078;11.516;2022-07-23T00:06:07;23.90;90.20
3818;DHT22;1924;48.078;11.516;2022-07-23T00:08:34;24.00;90.30
3818;DHT22;1924;48.078;11.516;2022-07-23T00:11:15;23.90;90.70
3818;DHT22;1924;48.078;11.516;2022-07-23T00:13:44;23.80;90.80
3818;DHT22;1924;48.078;11.516;2022-07-23T00:16:10;23.80;90.60
3818;DHT22;1924;48.078;11.516;2022-07-23T00:18:37;23.80;91.10
3818;DHT22;1924;48.078;11.516;2022-07-23T00:21:07;23.80;91.10
3818;DHT22;1924;48.078;11.516;2022-07-23T00:23:34;23.70;90.90
3818;DHT22;1924;48.078;11.516;2022-07-23T00:26:00;23.60;90.90
3818;DHT22;1924;48.078;11.516;2022-07-23T00:28:34;23.50;91.20
3818;DHT22;1924;48.078;11.516;2022-07-23T00:31:03;23.60;90.80
3818;DHT22;1924;48.078;11.516;2022-07-23T00:33:30;23.50;91.20
3818;DHT22;1924;48.078;11.516;2022-07-23T00:35:56;23.50;91.00
3818;DHT22;1924;48.078;11.516;2022-07-23T00:38:23;23.50;91.10
3818;DHT22;1924;48.078;11.516;2022-07-23T00:40:50;23.50;91.00
3818;DHT22;1924;48.078;11.516;2022-07-23T00:43:18;23.50;90.40
3818;DHT22;1924;48.078;11.516;2022-07-23T00:45:46;23.50;90.70
3818;DHT22;1924;48.078;11.516;2022-07-23T00:48:14;23.40;90.70
3818;DHT22;1924;48.078;11.516;2022-07-23T00:50:40;23.40;90.70
3818;DHT22;1924;48.078;11.516;2022-07-23T00:53:08;23.40;90.90
3818;DHT22;1924;48.078;11.516;2022-07-23T00:55:35;23.40;90.60
3818;DHT22;1924;48.078;11.516;2022-07-23T00:58:03;23.50;90.70
3818;DHT22;1924;48.078;11.516;2022-07-23T01:00:30;23.50;90.70
3818;DHT22;1924;48.078;11.516;2022-07-23T01:02:57;23.50;90.40
3818;DHT22;1924;48.078;11.516;2022-07-23T01:05:26;23.50;90.10
3818;DHT22;1924;48.078;11.516;2022-07-23T01:07:53;23.50;90.00
3818;DHT22;1924;48.078;11.516;2022-07-23T01:10:20;23.60;89.50
3818;DHT22;1924;48.078;11.516;2022-07-23T01:13:02;23.60;89.00
3818;DHT22;1924;48.078;11.516;2022-07-23T01:15:30;23.50;89.00
3818;DHT22;1924;48.078;11.516;2022-07-23T01:17:57;23.50;89.80
3818;DHT22;1924;48.078;11.516;2022-07-23T01:20:26;23.70;89.80
3818;DHT22;1924;48.078;11.516;2022-07-23T01:22:54;23.60;89.90
3818;DHT22;1924;48.078;11.516;2022-07-23T01:25:21;23.60;88.50
3818;DHT22;1924;48.078;11.516;2022-07-23T01:27:48;23.30;84.20
3818;DHT22;1924;48.078;11.516;2022-07-23T01:30:15;23.30;82.60
3818;DHT22;1924;48.078;11.516;2022-07-23T01:32:42;22.90;79.80
3818;DHT22;1924;48.078;11.516;2022-07-23T01:35:09;22.90;80.40
3818;DHT22;1924;48.078;11.516;2022-07-23T01:37:36;22.80;80.00
3818;DHT22;1924;48.078;11.516;2022-07-23T01:40:06;22.80;81.00
3818;DHT22;1924;48.078;11.516;2022-07-23T01:42:32;22.70;81.80
3818;DHT22;1924;48.078;11.516;2022-07-23T01:44:59;22.60;83.30
3818;DHT22;1924;48.078;11.516;2022-07-23T01:47:26;22.20;85.00
3818;DHT22;1924;48.078;11.516;2022-07-23T01:49:53;22.30;86.40
3818;DHT22;1924;48.078;11.516;2022-07-23T01:52:20;22.20;87.20
3818;DHT22;1924;48.078;11.516;2022-07-23T01:54:47;22.10;88.20
3818;DHT22;1924;48.078;11.516;2022-07-23T01:57:15;21.90;89.80
3818;DHT22;1924;48.078;11.516;2022-07-23T01:59:41;21.80;90.10
3818;DHT22;1924;48.078;11.516;2022-07-23T02:02:08;21.60;90.40
3818;DHT22;1924;48.078;11.516;2022-07-23T02:04:35;21.70;90.90
3818;DHT22;1924;48.078;11.516;2022-07-23T02:07:03;21.60;90.90
3818;DHT22;1924;48.078;11.516;2022-07-23T02:09:30;21.50;91.50
3818;DHT22;1924;48.078;11.516;2022-07-23T02:11:57;21.20;92.40
3818;DHT22;1924;48.078;11.516;2022-07-23T02:14:25;21.00;93.20
3818;DHT22;1924;48.078;11.516;2022-07-23T02:16:52;20.80;93.40
3818;DHT22;1924;48.078;11.516;2022-07-23T02:19:19;20.70;94.00
3818;DHT22;1924;48.078;11.516;2022-07-23T02:21:45;20.70;93.90
3818;DHT22;1924;48.078;11.516;2022-07-23T02:24:12;20.60;93.80
3818;DHT22;1924;48.078;11.516;2022-07-23T02:26:39;20.70;93.20
3818;DHT22;1924;48.078;11.516;2022-07-23T02:29:06;20.80;93.20
3818;DHT22;1924;48.078;11.516;2022-07-23T02:31:35;20.70;93.50
3818;DHT22;1924;48.078;11.516;2022-07-23T02:34:02;20.70;94.30
3818;DHT22;1924;48.078;11.516;2022-07-23T02:36:29;20.70;94.60
3818;DHT22;1924;48.078;11.516;2022-07-23T02:38:56;21.00;96.00
3818;DHT22;1924;48.078;11.516;2022-07-23T02:41:22;21.20;95.50
3818;DHT22;1924;48.078;11.516;2022-07-23T02:43:49;21.20;96.00
3818;DHT22;1924;48.078;11.516;2022-07-23T02:46:16;21.20;96.10
3818;DHT22;1924;48.078;11.516;2022-07-23T02:48:45;21.40;96.50
3818;DHT22;1924;48.078;11.516;2022-07-23T02:51:11;21.40;95.90
3818;DHT22;1924;48.078;11.516;2022-07-23T02:53:38;21.60;95.50
3818;DHT22;1924;48.078;11.516;2022-07-23T02:56:05;21.30;95.30
3818;DHT22;1924;48.078;11.516;2022-07-23T02:58:31;20.90;95.90
3818;DHT22;1924;48.078;11.516;2022-07-23T03:00:58;21.00;97.40
3818;DHT22;1924;48.078;11.516;2022-07-23T03:03:25;21.00;98.50
3818;DHT22;1924;48.078;11.516;2022-07-23T03:05:53;20.70;99.50
3818;DHT22;1924;48.078;11.516;2022-07-23T03:08:20;20.50;99.90
3818;DHT22;1924;48.078;11.516;2022-07-23T03:10:46;20.50;99.90
3818;DHT22;1924;48.078;11.516;2022-07-23T03:13:13;20.60;99.90
3818;DHT22;1924;48.078;11.516;2022-07-23T03:15:40;20.70;99.90
3818;DHT22;1924;48.078;11.516;2022-07-23T03:18:07;20.70;99.90
3818;DHT22;1924;48.078;11.516;2022-07-23T03:20:33;20.70;99.90
3818;DHT22;1924;48.078;11.516;2022-07-23T03:23:01;20.80;99.90
3818;DHT22;1924;48.078;11.516;2022-07-23T03:25:28;20.70;99.90
3818;DHT22;1924;48.078;11.516;2022-07-23T03:27:55;20.80;99.90
3818;DHT22;1924;48.078;11.516;2022-07-23T03:30:22;20.80;99.90
3818;DHT22;1924;48.078;11.516;2022-07-23T03:32:48;20.60;99.90
3818;DHT22;1924;48.078;11.516;2022-07-23T03:35:15;20.60;99.90
3818;DHT22;1924;48.078;11.516;2022-07-23T03:37:42;20.70;99.90
3818;DHT22;1924;48.078;11.516;2022-07-23T03:40:11;20.70;99.90
3818;DHT22;1924;48.078;11.516;2022-07-23T03:42:38;20.70;99.90
3818;DHT22;1924;48.078;11.516;2022-07-23T03:45:07;20.70;99.90
3818;DHT22;1924;48.078;11.516;2022-07-23T03:47:34;20.60;99.90
3818;DHT22;1924;48.078;11.516;2022-07-23T03:50:00;20.60;99.90
3818;DHT22;1924;48.078;11.516;2022-07-23T03:52:27;20.50;99.90
3818;DHT22;1924;48.078;11.516;2022-07-23T03:54:54;20.40;99.90
3818;DHT22;1924;48.078;11.516;2022-07-23T03:57:22;20.20;99.90
3818;DHT22;1924;48.078;11.516;2022-07-23T03:59:48;20.00;99.90
3818;DHT22;1924;48.078;11.516;2022-07-23T04:02:15;19.70;99.90
3818;DHT22;1924;48.078;11.516;2022-07-23T04:04:42;19.70;99.90
3818;DHT22;1924;48.078;11.516;2022-07-23T04:07:09;19.80;99.90
3818;DHT22;1924;48.078;11.516;2022-07-23T04:09:35;19.80;99.90
3818;DHT22;1924;48.078;11.516;2022-07-23T04:12:02;19.90;99.90
3818;DHT22;1924;48.078;11.516;2022-07-23T04:14:30;20.10;99.90
3818;DHT22;1924;48.078;11.516;2022-07-23T04:16:57;20.10;99.90
3818;DHT22;1924;48.078;11.516;2022-07-23T04:19:24;20.10;99.90
3818;DHT22;1924;48.078;11.516;2022-07-23T04:21:51;20.10;99.90
3818;DHT22;1924;48.078;11.516;2022-07-23T04:24:18;20.10;99.90
3818;DHT22;1924;48.078;11.516;2022-07-23T04:26:45;20.20;99.90
3818;DHT22;1924;48.078;11.516;2022-07-23T04:29:12;20.20;99.90
3818;DHT22;1924;48.078;11.516;2022-07-23T04:31:40;20.30;99.90
3818;DHT22;1924;48.078;11.516;2022-07-23T04:34:06;20.50;99.90
3818;DHT22;1924;48.078;11.516;2022-07-23T04:36:33;20.70;99.90
3818;DHT22;1924;48.078;11.516;2022-07-23T04:39:00;20.80;99.90
3818;DHT22;1924;48.078;11.516;2022-07-23T04:41:27;20.80;99.90
3818;DHT22;1924;48.078;11.516;2022-07-23T04:43:53;20.50;99.90
3818;DHT22;1924;48.078;11.516;2022-07-23T04:46:20;20.40;99.90
3818;DHT22;1924;48.078;11.516;2022-07-23T04:48:48;20.40;99.90
3818;DHT22;1924;48.078;11.516;2022-07-23T04:51:15;20.40;99.90
3818;DHT22;1924;48.078;11.516;2022-07-23T04:53:41;20.50;99.90
3818;DHT22;1924;48.078;11.516;2022-07-23T04:56:08;20.30;99.90
3818;DHT22;1924;48.078;11.516;2022-07-23T04:58:35;20.30;99.90
3818;DHT22;1924;48.078;11.516;2022-07-23T05:01:02;20.30;99.90
3818;DHT22;1924;48.078;11.516;2022-07-23T05:03:29;20.40;99.90
3818;DHT22;1924;48.078;11.516;2022-07-23T05:05:57;20.40;99.90
3818;DHT22;1924;48.078;11.516;2022-07-23T05:08:23;20.40;99.90
3818;DHT22;1924;48.078;11.516;2022-07-23T05:10:50;20.40;99.90
3818;DHT22;1924;48.078;11.516;2022-07-23T05:13:17;20.40;99.90
3818;DHT22;1924;48.078;11.516;2022-07-23T05:15:50;20.30;99.90
3818;DHT22;1924;48.078;11.516;2022-07-23T05:18:17;20.30;99.90
3818;DHT22;1924;48.078;11.516;2022-07-23T05:20:44;20.20;99.90
3818;DHT22;1924;48.078;11.516;2022-07-23T05:23:12;20.10;99.90
3818;DHT22;1924;48.078;11.516;2022-07-23T05:25:39;20.10;99.90
3818;DHT22;1924;48.078;11.516;2022-07-23T05:28:06;20.00;99.90
3818;DHT22;1924;48.078;11.516;2022-07-23T05:30:33;20.10;99.90
3818;DHT22;1924;48.078;11.516;2022-07-23T05:33:00;20.30;99.90
3818;DHT22;1924;48.078;11.516;2022-07-23T05:35:27;20.50;99.90
3818;DHT22;1924;48.078;11.516;2022-07-23T05:37:53;20.50;99.90
3818;DHT22;1924;48.078;11.516;2022-07-23T05:40:21;20.40;99.90
3818;DHT22;1924;48.078;11.516;2022-07-23T05:42:48;20.30;99.90
3818;DHT22;1924;48.078;11.516;2022-07-23T05:45:15;20.40;99.90
3818;DHT22;1924;48.078;11.516;2022-07-23T05:47:44;20.60;99.90
3818;DHT22;1924;48.078;11.516;2022-07-23T05:50:11;20.50;99.90
3818;DHT22;1924;48.078;11.516;2022-07-23T05:52:38;20.50;99.90
3818;DHT22;1924;48.078;11.516;2022-07-23T05:55:06;20.40;99.90
3818;DHT22;1924;48.078;11.516;2022-07-23T05:57:35;20.60;99.90
3818;DHT22;1924;48.078;11.516;2022-07-23T06:00:03;20.60;99.90
3818;DHT22;1924;48.078;11.516;2022-07-23T06:02:30;20.70;99.90
3818;DHT22;1924;48.078;11.516;2022-07-23T06:04:57;20.90;99.90
3818;DHT22;1924;48.078;11.516;2022-07-23T06:07:24;20.90;99.90
3818;DHT22;1924;48.078;11.516;2022-07-23T06:09:50;20.70;99.90
3818;DHT22;1924;48.078;11.516;2022-07-23T06:12:18;20.70;99.90
3818;DHT22;1924;48.078;11.516;2022-07-23T06:14:46;20.50;99.90
3818;DHT22;1924;48.078;11.516;2022-07-23T06:17:15;20.50;99.90
3818;DHT22;1924;48.078;11.516;2022-07-23T06:19:42;20.40;99.90
3818;DHT22;1924;48.078;11.516;2022-07-23T06:22:09;20.30;99.90
3818;DHT22;1924;48.078;11.516;2022-07-23T06:24:35;20.10;99.90
3818;DHT22;1924;48.078;11.516;2022-07-23T06:27:02;20.40;99.90
3818;DHT22;1924;48.078;11.516;2022-07-23T06:29:29;20.60;99.90
3818;DHT22;1924;48.078;11.516;2022-07-23T06:31:57;20.70;99.90
3818;DHT22;1924;48.078;11.516;2022-07-23T06:34:24;20.80;99.90
3818;DHT22;1924;48.078;11.516;2022-07-23T06:36:51;20.80;99.90
3818;DHT22;1924;48.078;11.516;2022-07-23T06:39:17;20.80;99.90
3818;DHT22;1924;48.078;11.516;2022-07-23T06:41:44;20.90;99.90
3818;DHT22;1924;48.078;11.516;2022-07-23T06:44:11;21.00;99.90
3818;DHT22;1924;48.078;11.516;2022-07-23T06:46:38;20.90;99.90
3818;DHT22;1924;48.078;11.516;2022-07-23T06:49:06;20.90;99.90
3818;DHT22;1924;48.078;11.516;2022-07-23T06:51:33;20.80;99.90
3818;DHT22;1924;48.078;11.516;2022-07-23T06:53:59;20.80;99.90
3818;DHT22;1924;48.078;11.516;2022-07-23T06:56:26;20.70;99.90
3818;DHT22;1924;48.078;11.516;2022-07-23T06:58:53;20.70;99.90
3818;DHT22;1924;48.078;11.516;2022-07-23T07:01:20;20.70;99.90
3818;DHT22;1924;48.078;11.516;2022-07-23T07:03:47;20.60;99.90
3818;DHT22;1924;48.078;11.516;2022-07-23T07:06:15;20.60;99.90
3818;DHT22;1924;48.078;11.516;2022-07-23T07:08:42;20.50;99.90
3818;DHT22;1924;48.078;11.516;2022-07-23T07:11:09;20.50;99.90
3818;DHT22;1924;48.078;11.516;2022-07-23T07:13:37;20.50;99.90
3818;DHT22;1924;48.078;11.516;2022-07-23T07:16:04;20.40;99.90
3818;DHT22;1924;48.078;11.516;2022-07-23T07:18:31;20.30;99.90
3818;DHT22;1924;48.078;11.516;2022-07-23T07:20:58;20.40;99.90
3818;DHT22;1924;48.078;11.516;2022-07-23T07:23:26;20.40;99.90
3818;DHT22;1924;48.078;11.516;2022-07-23T07:25:52;20.50;99.90
3818;DHT22;1924;48.078;11.516;2022-07-23T07:28:19;20.70;99.90
3818;DHT22;1924;48.078;11.516;2022-07-23T07:30:46;20.90;99.90
3818;DHT22;1924;48.078;11.516;2022-07-23T07:33:13;20.90;99.90
3818;DHT22;1924;48.078;11.516;2022-07-23T07:35:40;21.00;99.90
3818;DHT22;1924;48.078;11.516;2022-07-23T07:38:06;21.00;99.90
3818;DHT22;1924;48.078;11.516;2022-07-23T07:40:34;20.90;99.90
3818;DHT22;1924;48.078;11.516;2022-07-23T07:43:02;20.90;99.90
3818;DHT22;1924;48.078;11.516;2022-07-23T07:45:29;21.00;99.90
3818;DHT22;1924;48.078;11.516;2022-07-23T07:47:57;21.00;99.90
3818;DHT22;1924;48.078;11.516;2022-07-23T07:50:24;20.90;99.90
3818;DHT22;1924;48.078;11.516;2022-07-23T07:52:51;21.00;99.90
3818;DHT22;1924;48.078;11.516;2022-07-23T07:55:18;21.00;99.90
3818;DHT22;1924;48.078;11.516;2022-07-23T07:57:46;21.00;99.90
3818;DHT22;1924;48.078;11.516;2022-07-23T08:00:14;20.90;99.90
3818;DHT22;1924;48.078;11.516;2022-07-23T08:02:42;20.90;99.90
3818;DHT22;1924;48.078;11.516;2022-07-23T08:05:09;20.90;99.90
3818;DHT22;1924;48.078;11.516;2022-07-23T08:07:36;20.90;99.90
3818;DHT22;1924;48.078;11.516;2022-07-23T08:10:05;20.90;99.90
3818;DHT22;1924;48.078;11.516;2022-07-23T08:12:41;21.00;99.90
3818;DHT22;1924;48.078;11.516;2022-07-23T08:15:10;21.00;99.90
3818;DHT22;1924;48.078;11.516;2022-07-23T08:17:37;21.00;99.90
3818;DHT22;1924;48.078;11.516;2022-07-23T08:20:05;21.10;99.90
3818;DHT22;1924;48.078;11.516;2022-07-23T08:22:46;21.00;99.90
3818;DHT22;1924;48.078;11.516;2022-07-23T08:25:13;21.10;99.90
3818;DHT22;1924;48.078;11.516;2022-07-23T08:27:40;21.20;99.90
3818;DHT22;1924;48.078;11.516;2022-07-23T08:30:09;21.20;99.90
3818;DHT22;1924;48.078;11.516;2022-07-23T08:32:52;21.30;99.90
3818;DHT22;1924;48.078;11.516;2022-07-23T08:35:23;21.30;99.90
3818;DHT22;1924;48.078;11.516;2022-07-23T08:37:50;21.40;99.90
3818;DHT22;1924;48.078;11.516;2022-07-23T08:40:17;21.40;99.90
3818;DHT22;1924;48.078;11.516;2022-07-23T08:42:44;21.50;99.90
3818;DHT22;1924;48.078;11.516;2022-07-23T08:45:16;21.50;99.90
3818;DHT22;1924;48.078;11.516;2022-07-23T08:47:43;21.50;99.90
3818;DHT22;1924;48.078;11.516;2022-07-23T08:50:11;21.60;99.90
3818;DHT22;1924;48.078;11.516;2022-07-23T08:52:38;21.60;99.90
3818;DHT22;1924;48.078;11.516;2022-07-23T08:55:07;21.60;99.90
3818;DHT22;1924;48.078;11.516;2022-07-23T08:57:34;21.60;99.90
3818;DHT22;1924;48.078;11.516;2022-07-23T09:00:03;21.50;99.90
3818;DHT22;1924;48.078;11.516;2022-07-23T09:02:38;21.60;99.90
3818;DHT22;1924;48.078;11.516;2022-07-23T09:05:06;21.60;99.90
3818;DHT22;1924;48.078;11.516;2022-07-23T09:07:32;21.60;99.90
3818;DHT22;1924;48.078;11.516;2022-07-23T09:10:06;21.60;99.90
3818;DHT22;1924;48.078;11.516;2022-07-23T09:12:33;21.60;99.90
3818;DHT22;1924;48.078;11.516;2022-07-23T09:15:04;21.60;99.90
3818;DHT22;1924;48.078;11.516;2022-07-23T09:17:38;21.60;99.90
3818;DHT22;1924;48.078;11.516;2022-07-23T09:20:10;21.70;99.90
3818;DHT22;1924;48.078;11.516;2022-07-23T09:22:37;21.80;99.90
3818;DHT22;1924;48.078;11.516;2022-07-23T09:25:07;21.80;99.90
3818;DHT22;1924;48.078;11.516;2022-07-23T09:27:50;21.90;99.90
3818;DHT22;1924;48.078;11.516;2022-07-23T09:30:19;22.00;99.90
3818;DHT22;1924;48.078;11.516;2022-07-23T09:33:06;22.30;99.90
3818;DHT22;1924;48.078;11.516;2022-07-23T09:35:47;22.60;99.90
3818;DHT22;1924;48.078;11.516;2022-07-23T09:38:15;22.90;99.90
3818;DHT22;1924;48.078;11.516;2022-07-23T09:40:43;23.20;99.90
3818;DHT22;1924;48.078;11.516;2022-07-23T09:43:10;23.30;99.90
3818;DHT22;1924;48.078;11.516;2022-07-23T09:45:37;23.40;99.90
3818;DHT22;1924;48.078;11.516;2022-07-23T09:48:14;23.50;99.90
3818;DHT22;1924;48.078;11.516;2022-07-23T09:50:41;23.60;99.90
3818;DHT22;1924;48.078;11.516;2022-07-23T09:53:13;23.70;99.90
3818;DHT22;1924;48.078;11.516;2022-07-23T09:55:51;23.90;99.90
3818;DHT22;1924;48.078;11.516;2022-07-23T09:58:21;24.00;99.90
3818;DHT22;1924;48.078;11.516;2022-07-23T10:00:50;24.20;99.90
3818;DHT22;1924;48.078;11.516;2022-07-23T10:03:19;24.20;99.90
3818;DHT22;1924;48.078;11.516;2022-07-23T10:05:47;24.30;99.90
3818;DHT22;1924;48.078;11.516;2022-07-23T10:08:17;24.30;99.90
3818;DHT22;1924;48.078;11.516;2022-07-23T10:10:45;24.30;99.90
3818;DHT22;1924;48.078;11.516;2022-07-23T10:13:14;24.40;99.90
3818;DHT22;1924;48.078;11.516;2022-07-23T10:16:01;24.40;98.60
3818;DHT22;1924;48.078;11.516;2022-07-23T10:18:30;24.50;99.90
3818;DHT22;1924;48.078;11.516;2022-07-23T10:20:57;24.50;98.10
3818;DHT22;1924;48.078;11.516;2022-07-23T10:23:34;24.60;98.80
3818;DHT22;1924;48.078;11.516;2022-07-23T10:26:05;24.70;99.30
3818;DHT22;1924;48.078;11.516;2022-07-23T10:28:51;24.80;99.90
3818;DHT22;1924;48.078;11.516;2022-07-23T10:31:31;24.90;99.90
3818;DHT22;1924;48.078;11.516;2022-07-23T10:34:19;24.90;96.50
3818;DHT22;1924;48.078;11.516;2022-07-23T10:36:51;24.80;98.00
3818;DHT22;1924;48.078;11.516;2022-07-23T10:39:24;24.80;97.40
3818;DHT22;1924;48.078;11.516;2022-07-23T10:41:51;24.80;97.20
3818;DHT22;1924;48.078;11.516;2022-07-23T10:44:20;24.90;98.40
3818;DHT22;1924;48.078;11.516;2022-07-23T10:46:57;24.70;95.50
3818;DHT22;1924;48.078;11.516;2022-07-23T10:49:39;24.60;95.10
3818;DHT22;1924;48.078;11.516;2022-07-23T10:52:25;24.50;94.20
3818;DHT22;1924;48.078;11.516;2022-07-23T10:54:54;24.60;95.30
3818;DHT22;1924;48.078;11.516;2022-07-23T10:57:24;24.60;94.00
3818;DHT22;1924;48.078;11.516;2022-07-23T11:00:20;24.90;95.00
3818;DHT22;1924;48.078;11.516;2022-07-23T11:02:48;25.00;93.10
3818;DHT22;1924;48.078;11.516;2022-07-23T11:05:18;25.00;93.30
3818;DHT22;1924;48.078;11.516;2022-07-23T11:08:11;25.00;95.20
3818;DHT22;1924;48.078;11.516;2022-07-23T11:10:42;24.80;94.70
3818;DHT22;1924;48.078;11.516;2022-07-23T11:13:29;24.70;94.20
3818;DHT22;1924;48.078;11.516;2022-07-23T11:16:18;24.60;93.80
3818;DHT22;1924;48.078;11.516;2022-07-23T11:18:57;24.40;94.10
3818;DHT22;1924;48.078;11.516;2022-07-23T11:21:46;24.40;94.50
3818;DHT22;1924;48.078;11.516;2022-07-23T11:24:23;24.40;94.90
3818;DHT22;1924;48.078;11.516;2022-07-23T11:26:59;24.30;95.00
3818;DHT22;1924;48.078;11.516;2022-07-23T11:29:47;24.30;93.80
3818;DHT22;1924;48.078;11.516;2022-07-23T11:32:31;24.20;93.80
3818;DHT22;1924;48.078;11.516;2022-07-23T11:35:01;24.10;93.50
3818;DHT22;1924;48.078;11.516;2022-07-23T11:37:37;24.10;93.60
3818;DHT22;1924;48.078;11.516;2022-07-23T11:40:07;24.00;93.30
3818;DHT22;1924;48.078;11.516;2022-07-23T11:42:37;23.90;93.40
3818;DHT22;1924;48.078;11.516;2022-07-23T11:45:06;23.80;93.70
3818;DHT22;1924;48.078;11.516;2022-07-23T11:47:33;23.80;94.50
3818;DHT22;1924;48.078;11.516;2022-07-23T11:50:06;23.80;94.50
3818;DHT22;1924;48.078;11.516;2022-07-23T11:52:33;23.90;95.20
3818;DHT22;1924;48.078;11.516;2022-07-23T11:55:04;23.90;95.10
3818;DHT22;1924;48.078;11.516;2022-07-23T11:57:34;23.90;94.40
3818;DHT22;1924;48.078;11.516;2022-07-23T12:00:04;23.90;94.90
3818;DHT22;1924;48.078;11.516;2022-07-23T12:02:34;23.90;95.20
3818;DHT22;1924;48.078;11.516;2022-07-23T12:05:01;23.90;94.50
3818;DHT22;1924;48.078;11.516;2022-07-23T12:07:31;23.80;93.90
3818;DHT22;1924;48.078;11.516;2022-07-23T12:10:15;23.80;94.90
3818;DHT22;1924;48.078;11.516;2022-07-23T12:12:44;23.80;95.50
3818;DHT22;1924;48.078;11.516;2022-07-23T12:15:17;23.80;95.80
3818;DHT22;1924;48.078;11.516;2022-07-23T12:17:46;23.70;95.50
3818;DHT22;1924;48.078;11.516;2022-07-23T12:20:16;23.80;96.30
3818;DHT22;1924;48.078;11.516;2022-07-23T12:22:45;23.80;96.20
3818;DHT22;1924;48.078;11.516;2022-07-23T12:25:15;23.90;96.10
3818;DHT22;1924;48.078;11.516;2022-07-23T12:27:42;23.90;95.30
3818;DHT22;1924;48.078;11.516;2022-07-23T12:30:20;23.80;95.10
3818;DHT22;1924;48.078;11.516;2022-07-23T12:32:49;23.90;95.60
3818;DHT22;1924;48.078;11.516;2022-07-23T12:35:21;23.80;95.10
3818;DHT22;1924;48.078;11.516;2022-07-23T12:37:49;23.90;95.20
3818;DHT22;1924;48.078;11.516;2022-07-23T12:40:21;23.90;95.70
3818;DHT22;1924;48.078;11.516;2022-07-23T12:43:00;23.90;94.40
3818;DHT22;1924;48.078;11.516;2022-07-23T12:45:42;23.80;95.00
3818;DHT22;1924;48.078;11.516;2022-07-23T12:48:16;23.80;95.70
3818;DHT22;1924;48.078;11.516;2022-07-23T12:50:47;23.70;94.70
3818;DHT22;1924;48.078;11.516;2022-07-23T12:53:17;23.80;94.90
3818;DHT22;1924;48.078;11.516;2022-07-23T12:55:46;23.80;94.80
3818;DHT22;1924;48.078;11.516;2022-07-23T12:58:18;23.70;94.40
3818;DHT22;1924;48.078;11.516;2022-07-23T13:00:57;23.80;94.90
3818;DHT22;1924;48.078;11.516;2022-07-23T13:03:27;23.80;94.90
3818;DHT22;1924;48.078;11.516;2022-07-23T13:05:54;23.90;95.20
3818;DHT22;1924;48.078;11.516;2022-07-23T13:08:22;23.90;94.30
3818;DHT22;1924;48.078;11.516;2022-07-23T13:10:54;23.90;94.20
3818;DHT22;1924;48.078;11.516;2022-07-23T13:13:22;23.90;94.70
3818;DHT22;1924;48.078;11.516;2022-07-23T13:15:53;23.90;94.60
3818;DHT22;1924;48.078;11.516;2022-07-23T13:18:21;24.00;94.50
3818;DHT22;1924;48.078;11.516;2022-07-23T13:20:48;24.10;94.70
3818;DHT22;1924;48.078;11.516;2022-07-23T13:23:16;24.10;94.90
3818;DHT22;1924;48.078;11.516;2022-07-23T13:25:43;24.10;94.50
3818;DHT22;1924;48.078;11.516;2022-07-23T13:28:12;24.00;94.70
3818;DHT22;1924;48.078;11.516;2022-07-23T13:30:39;23.90;94.50
3818;DHT22;1924;48.078;11.516;2022-07-23T13:33:06;23.80;94.30
3818;DHT22;1924;48.078;11.516;2022-07-23T13:35:34;23.80;94.50
3818;DHT22;1924;48.078;11.516;2022-07-23T13:38:02;23.70;94.90
3818;DHT22;1924;48.078;11.516;2022-07-23T13:40:29;23.80;94.60
3818;DHT22;1924;48.078;11.516;2022-07-23T13:42:56;23.80;94.90
3818;DHT22;1924;48.078;11.516;2022-07-23T13:45:29;23.90;94.80
3818;DHT22;1924;48.078;11.516;2022-07-23T13:48:00;24.00;94.90
3818;DHT22;1924;48.078;11.516;2022-07-23T13:50:28;24.00;95.40
3818;DHT22;1924;48.078;11.516;2022-07-23T13:52:55;24.00;94.50
3818;DHT22;1924;48.078;11.516;2022-07-23T13:55:21;23.90;94.50
3818;DHT22;1924;48.078;11.516;2022-07-23T13:57:51;23.90;95.30
3818;DHT22;1924;48.078;11.516;2022-07-23T14:00:18;23.80;95.10
3818;DHT22;1924;48.078;11.516;2022-07-23T14:02:49;23.70;94.90
3818;DHT22;1924;48.078;11.516;2022-07-23T14:05:22;23.70;95.00
3818;DHT22;1924;48.078;11.516;2022-07-23T14:07:50;23.70;95.80
3818;DHT22;1924;48.078;11.516;2022-07-23T14:10:19;23.70;95.20
3818;DHT22;1924;48.078;11.516;2022-07-23T14:12:52;23.60;96.00
3818;DHT22;1924;48.078;11.516;2022-07-23T14:15:25;23.60;96.20
3818;DHT22;1924;48.078;11.516;2022-07-23T14:17:55;23.50;98.00
3818;DHT22;1924;48.078;11.516;2022-07-23T14:20:22;23.50;96.80
3818;DHT22;1924;48.078;11.516;2022-07-23T14:22:51;23.40;97.30
3818;DHT22;1924;48.078;11.516;2022-07-23T14:25:22;23.40;97.50
3818;DHT22;1924;48.078;11.516;2022-07-23T14:27:49;23.40;97.70
3818;DHT22;1924;48.078;11.516;2022-07-23T14:30:16;23.40;97.00
3818;DHT22;1924;48.078;11.516;2022-07-23T14:32:45;23.40;97.00
3818;DHT22;1924;48.078;11.516;2022-07-23T14:35:14;23.40;96.30
3818;DHT22;1924;48.078;11.516;2022-07-23T14:37:45;23.40;97.00
3818;DHT22;1924;48.078;11.516;2022-07-23T14:40:12;23.40;96.20
3818;DHT22;1924;48.078;11.516;2022-07-23T14:42:39;23.40;96.60
3818;DHT22;1924;48.078;11.516;2022-07-23T14:45:09;23.50;96.70
3818;DHT22;1924;48.078;11.516;2022-07-23T14:47:40;23.50;96.10
3818;DHT22;1924;48.078;11.516;2022-07-23T14:50:09;23.50;97.00
3818;DHT22;1924;48.078;11.516;2022-07-23T14:52:38;23.60;97.40
3818;DHT22;1924;48.078;11.516;2022-07-23T14:55:08;23.70;97.40
3818;DHT22;1924;48.078;11.516;2022-07-23T14:57:35;23.80;97.30
3818;DHT22;1924;48.078;11.516;2022-07-23T15:00:02;23.90;97.90
3818;DHT22;1924;48.078;11.516;2022-07-23T15:02:32;24.10;97.00
3818;DHT22;1924;48.078;11.516;2022-07-23T15:04:59;24.10;96.60
3818;DHT22;1924;48.078;11.516;2022-07-23T15:07:28;24.10;95.20
3818;DHT22;1924;48.078;11.516;2022-07-23T15:10:00;24.10;95.40
3818;DHT22;1924;48.078;11.516;2022-07-23T15:12:26;24.10;95.20
3818;DHT22;1924;48.078;11.516;2022-07-23T15:14:53;24.10;95.40
3818;DHT22;1924;48.078;11.516;2022-07-23T15:17:20;24.10;95.60
3818;DHT22;1924;48.078;11.516;2022-07-23T15:19:47;24.10;95.60
3818;DHT22;1924;48.078;11.516;2022-07-23T15:22:14;24.20;95.80
3818;DHT22;1924;48.078;11.516;2022-07-23T15:24:43;24.20;94.90
3818;DHT22;1924;48.078;11.516;2022-07-23T15:27:11;24.20;94.80
3818;DHT22;1924;48.078;11.516;2022-07-23T15:29:38;24.30;95.10
3818;DHT22;1924;48.078;11.516;2022-07-23T15:32:05;24.40;95.00
3818;DHT22;1924;48.078;11.516;2022-07-23T15:34:32;24.40;94.60
3818;DHT22;1924;48.078;11.516;2022-07-23T15:36:59;24.40;94.50
3818;DHT22;1924;48.078;11.516;2022-07-23T15:39:29;24.40;94.50
3818;DHT22;1924;48.078;11.516;2022-07-23T15:41:58;24.40;94.70
3818;DHT22;1924;48.078;11.516;2022-07-23T15:44:26;24.40;94.50
3818;DHT22;1924;48.078;11.516;2022-07-23T15:46:58;24.40;94.20
3818;DHT22;1924;48.078;11.516;2022-07-23T15:49:25;24.50;94.10
3818;DHT22;1924;48.078;11.516;2022-07-23T15:51:52;24.60;94.30
3818;DHT22;1924;48.078;11.516;2022-07-23T15:54:19;24.60;94.20
3818;DHT22;1924;48.078;11.516;2022-07-23T15:56:46;24.70;94.00